Time;durP1;ratioP1;P1;durP2;ratioP2;P2;SDS_P1;SDS_P2;PMS_P1;PMS_P2;Temp;Humidity;BMP_temperature;BMP_pressure;BME280_temperature;BME280_humidity;BME280_pressure;Samples;Min_cycle;Max_cycle;Signal;HPM_P1;HPM_P2
2022/12/30 06:03:30;;;;;;;5.30;1.58;;;4.10;99.90;;;;;;4977902;23;20060;-78
2022/12/30 06:06:02;;;;;;;4.57;1.53;;;4.00;99.90;;;;;;4925022;29;20094;-78
2022/12/30 06:08:28;;;;;;;3.67;1.23;;;4.00;99.90;;;;;;4924269;29;20032;-78
2022/12/30 06:10:54;;;;;;;3.75;1.13;;;4.10;99.90;;;;;;4924885;29;20045;-78
2022/12/30 06:13:20;;;;;;;2.72;1.08;;;4.00;99.90;;;;;;4923633;29;20024;-78
2022/12/30 06:15:46;;;;;;;3.35;1.17;;;4.00;99.90;;;;;;4922410;29;20031;-78
2022/12/30 06:18:11;;;;;;;5.28;2.13;;;4.00;99.90;;;;;;4923429;29;20036;-79
2022/12/30 06:20:37;;;;;;;4.20;1.60;;;4.00;99.90;;;;;;4924118;29;20031;-80
2022/12/30 06:23:03;;;;;;;5.60;1.15;;;4.00;99.90;;;;;;4925109;29;20051;-78
2022/12/30 06:25:29;;;;;;;4.38;1.20;;;3.90;99.90;;;;;;4927289;29;20099;-78
2022/12/30 06:27:55;;;;;;;3.72;1.00;;;3.90;99.90;;;;;;4928280;29;20040;-78
2022/12/30 06:30:20;;;;;;;2.47;1.15;;;3.90;99.90;;;;;;4929056;29;20317;-78
2022/12/30 06:32:46;;;;;;;2.83;0.90;;;3.80;99.90;;;;;;4926887;29;20036;-78
2022/12/30 06:35:12;;;;;;;4.82;1.42;;;3.70;99.90;;;;;;4926192;29;20037;-78
2022/12/30 06:37:38;;;;;;;3.03;1.10;;;3.80;99.90;;;;;;4910239;29;20032;-78
2022/12/30 06:40:06;;;;;;;3.15;1.10;;;3.80;99.90;;;;;;4910080;29;20092;-78
2022/12/30 06:42:31;;;;;;;5.88;1.40;;;3.70;99.90;;;;;;4910139;29;20180;-78
2022/12/30 06:44:57;;;;;;;4.60;1.40;;;3.70;99.90;;;;;;4909396;29;20068;-77
2022/12/30 06:47:23;;;;;;;2.75;1.27;;;3.60;99.90;;;;;;4922151;29;20040;-78
2022/12/30 06:49:49;;;;;;;5.63;1.90;;;3.60;99.90;;;;;;4917953;29;20039;-79
2022/12/30 06:52:15;;;;;;;5.18;1.65;;;3.60;99.90;;;;;;4926371;29;20056;-79
2022/12/30 06:54:40;;;;;;;9.40;5.53;;;3.60;99.90;;;;;;4927984;29;20040;-78
2022/12/30 06:57:07;;;;;;;5.97;2.80;;;3.60;99.90;;;;;;4924704;29;20092;-77
2022/12/30 06:59:33;;;;;;;5.40;1.63;;;3.60;99.90;;;;;;4909316;29;20046;-79
2022/12/30 07:01:58;;;;;;;14.27;8.77;;;3.50;99.90;;;;;;4907728;29;20222;-80
2022/12/30 07:04:24;;;;;;;13.90;9.05;;;3.50;99.90;;;;;;4909444;29;20337;-78
2022/12/30 07:06:51;;;;;;;5.63;3.20;;;3.50;99.90;;;;;;4908792;29;20039;-79
2022/12/30 07:09:17;;;;;;;5.45;2.40;;;3.50;99.90;;;;;;4909046;29;20029;-79
2022/12/30 07:11:42;;;;;;;3.65;1.83;;;3.50;99.90;;;;;;4908642;29;20029;-80
2022/12/30 07:14:08;;;;;;;4.55;2.08;;;3.40;99.90;;;;;;4909500;29;20070;-78
2022/12/30 07:16:34;;;;;;;4.63;1.85;;;3.40;99.90;;;;;;4908204;29;20326;-80
2022/12/30 07:19:00;;;;;;;3.20;1.50;;;3.40;99.90;;;;;;4908934;29;20322;-79
2022/12/30 07:21:26;;;;;;;3.67;1.75;;;3.40;99.90;;;;;;4892298;29;20044;-78
2022/12/30 07:23:51;;;;;;;4.00;1.60;;;3.50;99.90;;;;;;4908838;29;20048;-79
2022/12/30 07:26:17;;;;;;;2.95;1.40;;;3.50;99.90;;;;;;4923315;29;20039;-78
2022/12/30 07:28:43;;;;;;;28.30;15.93;;;3.50;99.90;;;;;;4909010;29;20056;-79
2022/12/30 07:31:08;;;;;;;16.00;8.93;;;3.60;99.90;;;;;;4908823;29;20036;-79
2022/12/30 07:33:34;;;;;;;7.80;4.03;;;3.60;99.90;;;;;;4908648;29;20028;-79
2022/12/30 07:36:00;;;;;;;4.10;2.17;;;3.60;99.90;;;;;;4908387;29;20032;-79
2022/12/30 07:38:25;;;;;;;4.95;1.85;;;3.60;99.90;;;;;;4923636;29;20035;-78
2022/12/30 07:40:51;;;;;;;6.43;2.08;;;3.60;99.90;;;;;;4908565;29;20067;-79
2022/12/30 07:43:17;;;;;;;5.97;2.25;;;3.70;99.90;;;;;;4923211;29;20035;-79
2022/12/30 07:45:43;;;;;;;4.03;1.60;;;3.70;99.90;;;;;;4906992;29;20111;-76
2022/12/30 07:48:09;;;;;;;3.38;1.77;;;3.80;99.90;;;;;;4908634;29;20048;-78
2022/12/30 07:50:39;;;;;;;3.35;1.63;;;3.80;99.90;;;;;;4907214;29;20029;-79
2022/12/30 07:53:07;;;;;;;2.90;1.60;;;3.80;99.90;;;;;;4908554;29;20084;-80
2022/12/30 07:55:32;;;;;;;4.80;1.90;;;3.90;99.90;;;;;;4908618;29;20298;-78
2022/12/30 07:57:58;;;;;;;4.22;1.90;;;4.00;99.90;;;;;;4907684;29;20040;-79
2022/12/30 08:00:27;;;;;;;3.67;1.92;;;4.10;99.90;;;;;;4908314;29;20322;-78
2022/12/30 08:02:52;;;;;;;;;;;4.20;99.90;;;;;;4909847;29;20073;-80
2022/12/30 08:05:18;;;;;;;2.97;1.67;;;4.30;99.90;;;;;;4908412;29;19971;-77
2022/12/30 08:07:44;;;;;;;4.57;1.45;;;4.50;99.90;;;;;;4907920;29;20029;-79
2022/12/30 08:10:10;;;;;;;6.40;1.90;;;4.60;99.90;;;;;;4908452;29;20162;-78
2022/12/30 08:12:36;;;;;;;5.07;2.05;;;4.70;99.90;;;;;;4908417;29;20024;-79
2022/12/30 08:15:30;;;;;;;4.28;1.90;;;4.70;99.90;;;;;;4908383;29;20060;-80
2022/12/30 08:18:01;;;;;;;3.38;1.67;;;4.80;99.90;;;;;;4908503;29;20108;-80
2022/12/30 08:20:28;;;;;;;2.70;1.63;;;4.90;99.90;;;;;;4892387;29;20032;-81
2022/12/30 08:22:56;;;;;;;3.80;1.63;;;4.90;99.90;;;;;;4907573;29;20044;-80
2022/12/30 08:25:22;;;;;;;4.57;1.60;;;5.00;99.90;;;;;;4900063;29;20323;-81
2022/12/30 08:27:48;;;;;;;5.78;2.03;;;5.00;99.90;;;;;;4905855;29;20108;-80
2022/12/30 08:30:14;;;;;;;3.45;1.25;;;5.10;99.90;;;;;;4903279;29;20082;-79
2022/12/30 08:32:40;;;;;;;3.78;1.80;;;5.20;99.90;;;;;;4908129;29;20194;-79
2022/12/30 08:35:07;;;;;;;3.78;1.73;;;5.20;99.90;;;;;;4906714;29;20032;-74
2022/12/30 08:37:34;;;;;;;3.50;1.73;;;5.30;99.90;;;;;;4907638;29;20120;-75
2022/12/30 08:40:00;;;;;;;3.53;1.63;;;5.40;99.90;;;;;;4905651;29;20040;-75
2022/12/30 08:42:25;;;;;;;2.47;1.40;;;5.50;99.90;;;;;;4907758;29;20218;-74
2022/12/30 08:44:51;;;;;;;4.38;1.52;;;5.60;99.90;;;;;;4906108;29;20033;-73
2022/12/30 08:47:17;;;;;;;3.45;1.48;;;5.60;99.90;;;;;;4907103;29;20350;-73
2022/12/30 08:49:43;;;;;;;3.30;1.50;;;5.70;99.90;;;;;;4907190;29;20041;-74
2022/12/30 08:52:09;;;;;;;2.63;1.38;;;5.80;99.90;;;;;;4907649;29;20040;-75
2022/12/30 08:54:34;;;;;;;3.60;1.40;;;5.90;99.90;;;;;;4907550;29;20310;-74
2022/12/30 08:57:00;;;;;;;2.22;1.00;;;5.90;99.90;;;;;;4907024;29;20040;-74
2022/12/30 08:59:26;;;;;;;2.78;1.08;;;5.90;99.90;;;;;;4905598;29;20075;-73
2022/12/30 09:01:51;;;;;;;3.17;1.42;;;6.00;99.90;;;;;;4890967;29;20053;-75
2022/12/30 09:04:17;;;;;;;3.95;1.58;;;6.10;99.90;;;;;;4888466;29;20076;-75
2022/12/30 09:06:43;;;;;;;3.05;1.63;;;6.10;99.90;;;;;;4888576;29;20056;-73
2022/12/30 09:09:12;;;;;;;3.88;1.58;;;6.10;99.90;;;;;;4889430;29;20033;-75
2022/12/30 09:11:39;;;;;;;2.53;1.45;;;6.20;99.90;;;;;;4890775;29;20101;-75
2022/12/30 09:14:07;;;;;;;4.53;1.98;;;6.20;99.90;;;;;;4886859;29;20089;-76
2022/12/30 09:16:34;;;;;;;;;;;6.20;99.90;;;;;;4895399;29;20025;-78
2022/12/30 09:18:59;;;;;;;3.22;1.80;;;6.20;99.90;;;;;;4889888;29;19922;-72
2022/12/30 09:21:26;;;;;;;3.92;2.10;;;6.30;99.90;;;;;;4899511;29;20077;-73
2022/12/30 09:23:51;;;;;;;3.35;2.00;;;6.40;99.90;;;;;;4906183;29;20028;-73
2022/12/30 09:26:23;;;;;;;6.53;1.80;;;6.50;99.90;;;;;;4907062;29;20199;-72
2022/12/30 09:28:49;;;;;;;3.40;1.80;;;6.60;99.90;;;;;;4906753;29;20353;-79
2022/12/30 09:31:15;;;;;;;7.65;2.70;;;6.70;99.90;;;;;;4907972;29;20036;-80
2022/12/30 09:33:41;;;;;;;4.47;2.40;;;6.70;99.90;;;;;;4907892;29;20055;-80
2022/12/30 09:36:10;;;;;;;3.83;2.38;;;6.80;99.90;;;;;;4907258;29;20028;-80
2022/12/30 09:38:37;;;;;;;5.85;2.33;;;6.80;99.90;;;;;;4906822;29;20322;-79
2022/12/30 09:44:40;;;;;;;5.00;2.47;;;7.00;99.90;;;;;;4891411;29;20024;-80
2022/12/30 09:47:13;;;;;;;;;;;7.00;99.90;;;;;;4919717;29;20044;-80
2022/12/30 09:49:49;;;;;;;3.17;2.10;;;7.00;99.90;;;;;;4906227;29;19942;-80
2022/12/30 09:52:37;;;;;;;3.80;1.85;;;7.10;99.90;;;;;;4907720;29;20231;-80
2022/12/30 09:55:17;;;;;;;3.72;1.98;;;7.30;99.90;;;;;;4906271;29;20055;-80
2022/12/30 09:57:54;;;;;;;6.20;2.40;;;7.30;99.90;;;;;;4906605;29;20041;-80
2022/12/30 10:00:28;;;;;;;3.00;1.77;;;7.50;99.90;;;;;;4908823;29;20028;-79
2022/12/30 10:03:17;;;;;;;4.18;2.20;;;7.50;99.90;;;;;;4893655;29;20055;-80
2022/12/30 10:06:22;;;;;;;3.65;2.00;;;7.60;99.90;;;;;;4910913;29;20052;-80
2022/12/30 10:09:20;;;;;;;4.07;2.35;;;7.60;99.90;;;;;;4909896;29;20049;-79
2022/12/30 10:12:13;;;;;;;3.30;1.95;;;7.70;99.90;;;;;;4892412;29;20100;-79
2022/12/30 10:15:13;;;;;;;4.53;2.17;;;7.90;99.90;;;;;;4892137;29;20029;-79
2022/12/30 10:18:11;;;;;;;4.43;1.95;;;8.00;99.90;;;;;;4914568;29;20158;-81
2022/12/30 10:20:57;;;;;;;4.10;2.00;;;8.20;99.90;;;;;;4915443;29;20093;-80
2022/12/30 10:23:44;;;;;;;4.35;1.77;;;8.30;99.90;;;;;;4910721;29;20043;-81
2022/12/30 10:26:25;;;;;;;4.15;1.95;;;8.40;99.90;;;;;;4914128;29;20342;-80
2022/12/30 10:29:05;;;;;;;3.67;1.73;;;8.50;99.90;;;;;;4910183;29;20044;-81
2022/12/30 10:31:40;;;;;;;3.58;1.85;;;8.70;99.90;;;;;;4909369;29;20037;-81
2022/12/30 10:34:27;;;;;;;2.17;1.00;;;8.80;99.90;;;;;;4910025;29;20111;-82
2022/12/30 10:37:30;;;;;;;2.35;1.15;;;8.90;99.90;;;;;;4909912;29;20333;-78
2022/12/30 10:39:56;;;;;;;2.05;0.95;;;9.10;99.90;;;;;;4906694;29;20059;-80
2022/12/30 10:42:31;;;;;;;2.20;0.80;;;9.30;99.90;;;;;;4910077;29;20036;-81
2022/12/30 10:45:51;;;;;;;3.22;0.80;;;9.50;99.90;;;;;;4909880;29;20088;-80
2022/12/30 10:49:14;;;;;;;1.70;0.73;;;9.70;99.90;;;;;;4873571;29;20112;-79
2022/12/30 10:51:49;;;;;;;2.67;0.80;;;10.00;99.90;;;;;;4870438;29;20203;-82
2022/12/30 10:54:17;;;;;;;2.15;0.43;;;10.40;99.90;;;;;;4855430;29;20050;-79
2022/12/30 10:56:44;;;;;;;14.32;9.98;;;10.40;99.90;;;;;;4855195;29;20062;-81
2022/12/30 10:59:17;;;;;;;3.63;1.90;;;10.70;99.90;;;;;;4870184;29;20049;-80
2022/12/30 11:01:46;;;;;;;3.42;1.83;;;10.90;99.90;;;;;;4869900;29;20049;-80
2022/12/30 11:04:41;;;;;;;1.85;0.70;;;11.20;99.90;;;;;;4871771;29;20366;-80
2022/12/30 11:07:10;;;;;;;1.48;0.40;;;11.80;99.90;;;;;;4868453;29;20055;-80
2022/12/30 11:09:37;;;;;;;1.13;0.40;;;12.30;99.90;;;;;;4869907;29;20033;-80
2022/12/30 11:15:10;;;;;;;1.10;0.30;;;12.70;99.90;;;;;;4870180;29;20056;-81
2022/12/30 11:17:44;;;;;;;1.02;0.30;;;12.90;99.90;;;;;;4855115;29;20025;-81
2022/12/30 11:20:13;;;;;;;1.50;0.30;;;13.10;99.90;;;;;;4870920;29;20280;-79
2022/12/30 11:22:51;;;;;;;;;;;13.50;99.90;;;;;;4871209;29;20059;-79
2022/12/30 11:25:53;;;;;;;1.38;0.30;;;13.20;99.90;;;;;;4871687;29;19950;-79
2022/12/30 11:28:25;;;;;;;1.08;0.40;;;13.10;99.90;;;;;;4819759;29;20091;-81
2022/12/30 11:30:51;;;;;;;0.93;0.38;;;13.40;99.90;;;;;;4894498;29;20067;-80
2022/12/30 11:33:34;;;;;;;1.77;0.30;;;13.60;99.40;;;;;;4909859;29;20041;-80
2022/12/30 11:36:20;;;;;;;0.88;0.32;;;13.20;99.50;;;;;;4908741;29;20336;-79
2022/12/30 11:38:48;;;;;;;0.93;0.20;;;13.40;99.80;;;;;;4909696;29;20037;-80
2022/12/30 11:41:23;;;;;;;1.67;0.30;;;13.80;99.40;;;;;;4909525;29;20043;-78
2022/12/30 11:43:56;;;;;;;2.90;0.40;;;14.70;98.00;;;;;;4909045;29;20068;-80
2022/12/30 11:46:45;;;;;;;2.35;0.30;;;15.10;97.00;;;;;;4910050;29;20037;-79
2022/12/30 11:49:37;;;;;;;2.63;0.60;;;15.70;96.30;;;;;;4908205;29;20218;-78
2022/12/30 11:52:19;;;;;;;2.30;0.70;;;16.00;95.70;;;;;;4906366;29;20069;-76
2022/12/30 11:54:50;;;;;;;4.28;0.60;;;16.00;95.10;;;;;;4907068;29;20033;-77
2022/12/30 11:57:36;;;;;;;2.40;0.60;;;16.20;94.80;;;;;;4908137;29;20024;-78
2022/12/30 12:00:17;;;;;;;2.05;0.70;;;16.00;94.90;;;;;;4905256;29;20033;-77
2022/12/30 12:02:55;;;;;;;1.30;0.40;;;15.80;94.80;;;;;;4904567;29;20126;-77
2022/12/30 12:05:21;;;;;;;1.17;0.40;;;15.40;94.60;;;;;;4906231;29;20039;-78
2022/12/30 12:07:47;;;;;;;1.17;0.40;;;14.70;95.40;;;;;;4907914;29;20040;-77
2022/12/30 12:10:23;;;;;;;1.38;0.52;;;14.30;95.70;;;;;;4907090;29;20051;-77
2022/12/30 12:12:49;;;;;;;1.58;0.55;;;13.90;96.50;;;;;;4906286;29;20319;-74
2022/12/30 12:15:25;;;;;;;1.35;0.30;;;13.60;97.30;;;;;;4907813;29;20092;-77
2022/12/30 12:18:36;;;;;;;1.70;0.50;;;13.20;97.30;;;;;;4905614;29;20036;-78
2022/12/30 12:21:19;;;;;;;1.48;0.60;;;12.80;98.20;;;;;;4895545;29;20029;-75
2022/12/30 12:24:16;;;;;;;1.67;0.50;;;12.50;99.10;;;;;;4902265;29;20329;-77
2022/12/30 12:26:45;;;;;;;1.30;0.50;;;12.40;99.30;;;;;;4895074;29;20037;-77
2022/12/30 12:29:15;;;;;;;1.40;0.50;;;12.10;99.90;;;;;;4921858;29;20044;-77
2022/12/30 12:32:15;;;;;;;2.10;0.70;;;12.00;99.90;;;;;;4908319;29;20100;-81
2022/12/30 12:34:56;;;;;;;3.15;0.68;;;11.90;99.90;;;;;;4908044;29;20318;-79
2022/12/30 12:37:43;;;;;;;2.05;0.60;;;11.70;99.90;;;;;;4908487;29;20032;-78
2022/12/30 12:40:12;;;;;;;1.43;0.73;;;11.80;99.90;;;;;;4906674;29;20073;-80
2022/12/30 12:43:29;;;;;;;2.85;0.70;;;11.70;99.90;;;;;;4908524;29;20194;-78
2022/12/30 12:46:06;;;;;;;2.17;0.75;;;11.70;99.90;;;;;;4850253;29;20037;-78
2022/12/30 12:48:54;;;;;;;2.05;0.65;;;11.70;99.90;;;;;;4835469;29;20042;-78
2022/12/30 12:51:28;;;;;;;2.00;0.60;;;11.60;99.90;;;;;;4884986;29;20087;-80
2022/12/30 12:54:31;;;;;;;1.73;0.63;;;11.60;99.90;;;;;;4907411;29;20031;-78
2022/12/30 12:57:26;;;;;;;1.02;0.50;;;11.50;99.90;;;;;;4908109;29;20315;-78
2022/12/30 13:00:12;;;;;;;3.97;0.82;;;11.60;99.90;;;;;;4903285;29;20048;-78
2022/12/30 13:03:22;;;;;;;2.42;0.60;;;11.60;99.90;;;;;;4905173;29;20100;-80
2022/12/30 13:06:01;;;;;;;4.00;0.73;;;11.50;99.90;;;;;;4853015;29;20078;-79
2022/12/30 13:08:38;;;;;;;1.80;0.40;;;11.40;99.90;;;;;;4868789;29;20161;-79
2022/12/30 13:11:27;;;;;;;1.13;0.50;;;11.40;99.90;;;;;;4852569;29;20057;-81
2022/12/30 13:14:11;;;;;;;1.83;0.70;;;11.40;99.90;;;;;;4868114;29;20038;-80
2022/12/30 13:16:48;;;;;;;2.67;0.90;;;11.40;99.90;;;;;;4868680;29;20094;-79
2022/12/30 13:19:34;;;;;;;1.75;0.70;;;11.40;99.90;;;;;;4868162;29;20040;-80
2022/12/30 13:22:29;;;;;;;2.63;0.85;;;11.40;99.90;;;;;;4867950;29;20044;-81
2022/12/30 13:24:57;;;;;;;2.38;0.70;;;11.40;99.90;;;;;;4846812;29;20041;-81
2022/12/30 13:27:27;;;;;;;2.42;0.60;;;11.30;99.90;;;;;;4867698;29;20029;-81
2022/12/30 13:30:02;;;;;;;1.52;0.50;;;11.30;99.90;;;;;;4867545;29;20093;-80
2022/12/30 13:33:07;;;;;;;2.15;0.70;;;11.40;99.90;;;;;;4868042;29;20104;-83
2022/12/30 13:35:50;;;;;;;1.65;0.57;;;11.30;99.90;;;;;;4864924;29;20157;-81
2022/12/30 13:38:52;;;;;;;1.85;0.75;;;11.20;99.90;;;;;;4867812;29;20093;-78
2022/12/30 13:41:32;;;;;;;2.47;0.90;;;11.10;99.90;;;;;;4885925;29;20049;-78
2022/12/30 13:44:04;;;;;;;2.05;0.80;;;11.00;99.90;;;;;;4906334;29;20024;-77
2022/12/30 13:46:33;;;;;;;3.55;0.90;;;10.90;99.90;;;;;;4905721;29;20210;-78
2022/12/30 13:49:40;;;;;;;2.05;0.73;;;10.90;99.90;;;;;;4906348;29;20145;-80
2022/12/30 13:52:20;;;;;;;1.65;0.60;;;10.80;99.90;;;;;;4894217;29;20110;-79
2022/12/30 13:54:51;;;;;;;1.90;0.70;;;10.80;99.90;;;;;;4907079;29;20302;-79
2022/12/30 13:57:36;;;;;;;1.85;0.60;;;10.80;99.90;;;;;;4906711;29;20036;-79
2022/12/30 14:00:14;;;;;;;2.60;0.70;;;10.70;99.90;;;;;;4902357;29;20033;-78
2022/12/30 14:02:40;;;;;;;;;;;10.70;99.90;;;;;;4888392;29;20048;-79
2022/12/30 14:05:51;;;;;;;1.75;0.60;;;10.70;99.90;;;;;;4888503;29;19908;-80
2022/12/30 14:08:17;;;;;;;2.17;0.68;;;10.60;99.90;;;;;;4896671;29;20037;-78
2022/12/30 14:10:52;;;;;;;1.65;0.40;;;10.60;99.90;;;;;;4901145;29;20036;-78
2022/12/30 14:13:23;;;;;;;2.03;0.63;;;10.60;99.90;;;;;;4905978;29;20099;-77
2022/12/30 14:15:55;;;;;;;1.77;0.85;;;10.60;99.90;;;;;;4904947;29;20285;-79
2022/12/30 14:18:45;;;;;;;1.60;0.52;;;10.50;99.90;;;;;;4906199;29;20037;-78
2022/12/30 14:21:13;;;;;;;3.22;0.80;;;10.60;99.90;;;;;;4906051;29;20037;-79
2022/12/30 14:23:47;;;;;;;1.92;0.70;;;10.60;99.90;;;;;;4906493;29;20092;-80
2022/12/30 14:26:18;;;;;;;2.53;1.10;;;10.60;99.90;;;;;;4906265;29;20033;-79
2022/12/30 14:28:55;;;;;;;1.85;0.60;;;10.60;99.90;;;;;;4906514;29;20134;-79
2022/12/30 14:31:27;;;;;;;2.63;1.08;;;10.60;99.90;;;;;;4906769;29;20028;-79
2022/12/30 14:33:56;;;;;;;3.67;0.90;;;10.60;99.90;;;;;;4906388;29;20340;-80
2022/12/30 14:36:33;;;;;;;4.45;2.10;;;10.60;99.90;;;;;;4906381;29;20029;-78
2022/12/30 14:39:13;;;;;;;3.38;1.60;;;10.60;99.90;;;;;;4905185;29;20032;-79
2022/12/30 14:41:43;;;;;;;6.07;1.83;;;10.50;99.90;;;;;;4906406;29;20096;-80
2022/12/30 14:44:12;;;;;;;4.07;2.03;;;10.50;99.90;;;;;;4906211;29;20056;-79
2022/12/30 14:46:40;;;;;;;6.75;3.58;;;10.40;99.90;;;;;;4907337;29;20318;-79
2022/12/30 14:49:39;;;;;;;3.50;2.17;;;10.40;99.90;;;;;;4909492;29;20068;-80
2022/12/30 14:52:09;;;;;;;5.25;2.10;;;10.40;99.90;;;;;;4909364;29;20216;-80
2022/12/30 14:55:13;;;;;;;6.70;2.50;;;10.30;99.90;;;;;;4910013;29;20040;-78
2022/12/30 14:57:41;;;;;;;7.03;2.80;;;10.40;99.90;;;;;;4891728;29;20115;-79
2022/12/30 15:00:13;;;;;;;5.68;2.80;;;10.30;99.90;;;;;;4909114;29;20035;-78
2022/12/30 15:02:50;;;;;;;5.88;2.83;;;10.30;99.90;;;;;;4909201;29;20060;-79
2022/12/30 15:05:20;;;;;;;6.65;3.25;;;10.30;99.90;;;;;;4909108;29;20036;-78
2022/12/30 15:07:48;;;;;;;6.90;2.97;;;10.20;99.90;;;;;;4909752;29;20044;-79
2022/12/30 15:10:26;;;;;;;5.78;3.03;;;10.20;99.90;;;;;;4908082;29;20087;-79
2022/12/30 15:12:53;;;;;;;7.35;3.33;;;10.20;99.90;;;;;;4909371;29;20029;-81
2022/12/30 15:15:25;;;;;;;6.07;2.63;;;10.20;99.90;;;;;;4907638;29;20028;-79
2022/12/30 15:17:51;;;;;;;6.13;2.60;;;10.10;99.90;;;;;;4909202;29;20084;-79
2022/12/30 15:20:31;;;;;;;4.72;2.15;;;10.10;99.90;;;;;;4908729;29;20275;-80
2022/12/30 15:23:00;;;;;;;5.72;2.70;;;10.10;99.90;;;;;;4909017;29;20317;-79
2022/12/30 15:25:25;;;;;;;;;;;10.10;99.90;;;;;;4909931;29;20036;-79
2022/12/30 15:27:57;;;;;;;4.20;2.10;;;10.20;99.90;;;;;;4906800;29;19938;-78
2022/12/30 15:30:24;;;;;;;5.60;3.00;;;10.20;99.90;;;;;;4908037;29;20036;-80
2022/12/30 15:33:08;;;;;;;4.13;1.92;;;10.20;99.90;;;;;;4908230;29;20036;-79
2022/12/30 15:35:38;;;;;;;4.95;1.80;;;10.20;99.90;;;;;;4909050;29;20362;-78
2022/12/30 15:38:09;;;;;;;4.90;1.70;;;10.20;99.90;;;;;;4908429;29;20106;-78
2022/12/30 15:40:35;;;;;;;4.63;1.92;;;10.30;99.90;;;;;;4909030;29;20029;-77
2022/12/30 15:43:10;;;;;;;4.38;1.50;;;10.20;99.90;;;;;;4908517;29;20056;-79
2022/12/30 15:45:55;;;;;;;3.13;1.52;;;10.20;99.90;;;;;;4908984;29;20029;-79
2022/12/30 15:48:35;;;;;;;3.25;1.45;;;10.20;99.90;;;;;;4907994;29;20115;-78
2022/12/30 15:51:04;;;;;;;2.38;1.00;;;10.20;99.90;;;;;;4889403;29;20029;-77
2022/12/30 15:53:33;;;;;;;2.90;1.00;;;10.20;99.90;;;;;;4889788;29;20025;-78
2022/12/30 15:56:00;;;;;;;3.00;1.10;;;10.20;99.90;;;;;;4917405;29;20306;-78
2022/12/30 15:58:50;;;;;;;2.60;0.98;;;10.20;99.90;;;;;;4906055;29;20374;-77
2022/12/30 16:01:18;;;;;;;1.80;0.85;;;10.20;99.90;;;;;;4888078;29;20025;-79
2022/12/30 16:03:54;;;;;;;2.45;0.73;;;10.20;99.90;;;;;;4889679;29;20051;-78
2022/12/30 16:06:21;;;;;;;1.73;0.90;;;10.20;99.90;;;;;;4888262;29;20402;-77
2022/12/30 16:08:47;;;;;;;3.40;0.98;;;10.20;99.90;;;;;;4889469;29;20261;-78
2022/12/30 16:11:26;;;;;;;1.90;0.70;;;10.10;99.90;;;;;;4899747;29;20096;-79
2022/12/30 16:13:53;;;;;;;1.77;0.80;;;10.00;99.90;;;;;;4907890;29;20133;-77
2022/12/30 16:16:19;;;;;;;2.17;0.98;;;10.00;99.90;;;;;;4907399;29;20036;-78
2022/12/30 16:19:08;;;;;;;2.10;0.98;;;10.10;99.90;;;;;;4908472;29;20075;-77
2022/12/30 16:21:35;;;;;;;2.28;0.90;;;10.00;99.90;;;;;;4906968;29;20108;-78
2022/12/30 16:24:14;;;;;;;2.10;0.95;;;10.10;99.90;;;;;;4906058;29;20298;-78
2022/12/30 16:26:49;;;;;;;2.90;1.13;;;10.10;99.90;;;;;;4906653;29;20032;-78
2022/12/30 16:29:26;;;;;;;3.22;1.40;;;10.10;99.90;;;;;;4907428;29;20111;-76
2022/12/30 16:31:52;;;;;;;3.10;1.38;;;10.10;99.90;;;;;;4907640;29;20067;-78
2022/12/30 16:34:19;;;;;;;3.67;0.82;;;10.10;99.90;;;;;;4905799;29;20024;-80
2022/12/30 16:36:45;;;;;;;2.17;0.95;;;10.10;99.90;;;;;;4907772;29;20127;-78
2022/12/30 16:39:11;;;;;;;1.98;0.90;;;10.20;99.90;;;;;;4907440;29;20043;-78
2022/12/30 16:41:37;;;;;;;3.28;1.10;;;10.20;99.90;;;;;;4907854;29;20033;-77
2022/12/30 16:44:16;;;;;;;2.58;1.05;;;10.30;99.90;;;;;;4906797;29;20096;-77
2022/12/30 16:46:41;;;;;;;2.55;0.85;;;10.30;99.90;;;;;;4906396;29;20040;-79
2022/12/30 16:49:08;;;;;;;2.28;0.77;;;10.40;99.90;;;;;;4906819;29;20032;-78
2022/12/30 16:51:33;;;;;;;2.40;1.45;;;10.50;99.90;;;;;;4907808;29;20032;-77
2022/12/30 16:54:00;;;;;;;2.10;0.50;;;10.50;99.90;;;;;;4907559;29;20029;-79
2022/12/30 16:56:26;;;;;;;1.70;0.65;;;10.70;99.90;;;;;;4905804;29;20042;-78
2022/12/30 16:58:52;;;;;;;1.90;0.68;;;10.70;99.90;;;;;;4907257;29;20040;-80
2022/12/30 17:01:21;;;;;;;1.63;0.50;;;10.80;99.90;;;;;;4905749;29;20039;-78
2022/12/30 17:03:47;;;;;;;2.17;0.55;;;10.90;99.90;;;;;;4907419;29;20048;-79
2022/12/30 17:06:13;;;;;;;1.75;0.52;;;11.00;99.90;;;;;;4905764;29;20036;-79
2022/12/30 17:08:40;;;;;;;1.70;0.50;;;11.00;99.90;;;;;;4906843;29;20040;-77
2022/12/30 17:11:10;;;;;;;2.65;0.70;;;11.10;99.90;;;;;;4906686;29;20040;-80
2022/12/30 17:13:40;;;;;;;2.22;0.60;;;11.20;99.90;;;;;;4907470;29;20061;-80
2022/12/30 17:16:20;;;;;;;1.40;0.60;;;11.20;99.90;;;;;;4907611;29;20327;-81
2022/12/30 17:18:47;;;;;;;1.55;0.63;;;11.20;99.90;;;;;;4908083;29;20032;-81
2022/12/30 17:21:17;;;;;;;2.63;0.80;;;11.20;99.90;;;;;;4905695;29;20043;-80
2022/12/30 17:23:49;;;;;;;1.33;0.50;;;11.20;99.90;;;;;;4907544;29;20304;-79
2022/12/30 17:26:18;;;;;;;2.38;0.60;;;11.20;99.90;;;;;;4906723;29;20032;-80
2022/12/30 17:28:44;;;;;;;1.10;0.50;;;11.20;99.90;;;;;;4906952;29;20048;-77
2022/12/30 17:31:25;;;;;;;1.30;0.63;;;11.20;99.90;;;;;;4921612;29;20044;-80
2022/12/30 17:33:52;;;;;;;1.00;0.60;;;11.20;99.90;;;;;;4907089;29;20040;-77
2022/12/30 17:36:23;;;;;;;5.03;1.05;;;11.20;99.90;;;;;;4906967;29;20062;-82
2022/12/30 17:38:50;;;;;;;1.90;0.60;;;11.20;99.90;;;;;;4907070;29;20037;-80
2022/12/30 17:41:17;;;;;;;1.75;0.30;;;11.30;99.90;;;;;;4905788;29;20028;-80
2022/12/30 17:43:43;;;;;;;2.55;1.10;;;11.30;99.90;;;;;;4906081;29;20024;-80
2022/12/30 17:46:10;;;;;;;2.42;0.90;;;11.30;99.90;;;;;;4905395;29;20078;-81
2022/12/30 17:48:36;;;;;;;2.25;0.80;;;11.30;99.90;;;;;;4906054;29;20036;-79
2022/12/30 17:51:10;;;;;;;1.95;0.70;;;11.30;99.90;;;;;;4905964;29;20028;-80
2022/12/30 17:53:35;;;;;;;2.25;0.80;;;11.30;99.90;;;;;;4906549;29;20035;-81
2022/12/30 17:56:05;;;;;;;2.78;0.65;;;11.30;99.90;;;;;;4907279;29;20108;-78
2022/12/30 17:58:34;;;;;;;2.90;1.25;;;11.30;99.90;;;;;;4907188;29;20083;-83
2022/12/30 18:01:11;;;;;;;1.73;0.73;;;11.40;99.90;;;;;;4907281;29;20036;-85
2022/12/30 18:03:38;;;;;;;3.45;0.77;;;11.40;99.90;;;;;;4905990;29;20052;-83
2022/12/30 18:06:06;;;;;;;1.30;0.57;;;11.40;99.90;;;;;;4905914;29;20214;-85
2022/12/30 18:08:41;;;;;;;1.38;0.60;;;11.50;99.90;;;;;;4906402;29;20235;-85
2022/12/30 18:11:15;;;;;;;1.30;0.50;;;11.50;99.90;;;;;;4890546;29;20025;-83
2022/12/30 18:13:41;;;;;;;1.95;0.68;;;11.50;99.90;;;;;;4905978;29;20225;-84
2022/12/30 18:16:24;;;;;;;1.58;0.90;;;11.50;99.90;;;;;;4889541;29;20060;-82
2022/12/30 18:19:02;;;;;;;2.30;0.80;;;11.60;99.90;;;;;;4905883;29;20032;-83
2022/12/30 18:21:40;;;;;;;1.50;0.65;;;11.60;99.90;;;;;;4893242;29;20271;-83
2022/12/30 18:24:06;;;;;;;1.90;0.75;;;11.60;99.90;;;;;;4909940;29;20363;-81
2022/12/30 18:26:43;;;;;;;1.00;0.40;;;11.70;99.90;;;;;;4912189;29;20051;-84
2022/12/30 18:29:16;;;;;;;2.28;0.50;;;11.70;99.90;;;;;;4910701;29;20230;-84
2022/12/30 18:31:45;;;;;;;1.75;0.40;;;11.70;99.90;;;;;;4910092;29;20024;-82
2022/12/30 18:34:11;;;;;;;1.52;0.50;;;11.70;99.90;;;;;;4925225;29;20310;-81
2022/12/30 18:39:43;;;;;;;2.17;0.45;;;11.80;99.90;;;;;;4911296;29;20028;-81
2022/12/30 18:42:09;;;;;;;0.93;0.35;;;11.80;99.90;;;;;;4910403;29;20044;-80
2022/12/30 18:44:35;;;;;;;2.25;0.50;;;11.80;99.90;;;;;;4894012;29;20028;-83
2022/12/30 18:47:16;;;;;;;2.55;0.47;;;11.70;99.90;;;;;;4909210;29;20067;-82
2022/12/30 18:50:33;;;;;;;1.40;0.57;;;11.80;99.90;;;;;;4910638;29;20044;-85
2022/12/30 18:52:59;;;;;;;1.75;0.68;;;11.60;99.90;;;;;;4908612;29;20064;-80
2022/12/30 18:55:40;;;;;;;2.92;0.60;;;11.40;99.90;;;;;;4909147;29;20036;-82
2022/12/30 19:01:18;;;;;;;5.15;0.80;;;11.10;99.90;;;;;;4889438;29;20231;-78
2022/12/30 19:03:48;;;;;;;2.15;0.70;;;11.10;99.90;;;;;;4896534;29;20037;-81
2022/12/30 19:06:14;;;;;;;2.22;0.70;;;11.20;99.90;;;;;;4909331;29;20032;-79
2022/12/30 19:08:43;;;;;;;1.20;0.40;;;11.20;99.90;;;;;;4909743;29;20035;-82
2022/12/30 19:11:21;;;;;;;2.28;0.43;;;11.20;99.90;;;;;;4908397;29;20035;-79
2022/12/30 19:13:53;;;;;;;1.55;0.57;;;11.30;99.90;;;;;;4909576;29;20044;-81
2022/12/30 19:16:22;;;;;;;1.23;0.45;;;11.30;99.90;;;;;;4909217;29;20095;-81
2022/12/30 19:18:54;;;;;;;1.63;0.45;;;11.20;99.90;;;;;;4907894;29;20037;-81
2022/12/30 19:21:26;;;;;;;1.15;0.50;;;11.20;99.90;;;;;;4906605;29;20207;-80
2022/12/30 19:24:46;;;;;;;1.95;0.60;;;11.30;99.90;;;;;;4909236;29;20104;-82
2022/12/30 19:27:10;;;;;;;1.90;0.60;;;11.30;99.90;;;;;;4854137;29;20346;-82
2022/12/30 19:29:55;;;;;;;1.88;0.57;;;11.40;99.90;;;;;;4864340;29;20040;-80
2022/12/30 19:32:20;;;;;;;1.58;0.57;;;11.40;99.90;;;;;;4890514;29;20028;-83
2022/12/30 19:34:58;;;;;;;1.40;0.60;;;11.40;99.90;;;;;;4909305;29;20337;-81
2022/12/30 19:37:26;;;;;;;2.50;0.93;;;11.40;99.90;;;;;;4889914;29;20024;-81
2022/12/30 19:39:52;;;;;;;1.77;0.80;;;11.50;99.90;;;;;;4908188;29;20223;-82
2022/12/30 19:42:28;;;;;;;1.35;0.50;;;11.40;99.90;;;;;;4907712;29;20294;-83